CTN8TF LDRI-EDDN
Flight info
| Callsign | CTN8TF |
|---|---|
| Flight time | 1h 0m |
| Altitude | 38000 |
| Route | ALIVO DCT BERTA DCT RENKA L610 STAUB/N0412F240 L610 UPALA UPALA1V |
| Aircraft | A319/M-SDE3FGHIRWY/LB1 |
Departure
| Time | 2026-04-20 19:26 |
|---|---|
| Airport | Rijeka Airport (LDRI) |
Arrival
| Time | 2026-04-20 20:26 |
|---|---|
| Airport | Nuremberg Airport (EDDN) |
| Time | Latitude | Longitude | Altitude | Speed | Heading |
|---|---|---|---|---|---|
| 2026-04-20 18:54 | 45.21917 | 14.57142 | 266 ft | 0 kts | 106° |
| 2026-04-20 19:20 | 45.21916 | 14.57145 | 238 ft | 1 kts | 108° |
| 2026-04-20 19:21 | 45.21904 | 14.57148 | 265 ft | 3 kts | 182° |
| 2026-04-20 19:21 | 45.21892 | 14.57112 | 265 ft | 6 kts | 270° |
| 2026-04-20 19:21 | 45.21923 | 14.57062 | 265 ft | 8 kts | 324° |
| 2026-04-20 19:21 | 45.21977 | 14.57009 | 266 ft | 10 kts | 325° |
| 2026-04-20 19:22 | 45.22016 | 14.56934 | 267 ft | 10 kts | 289° |
| 2026-04-20 19:22 | 45.22021 | 14.56907 | 267 ft | 0 kts | 284° |
| 2026-04-20 19:22 | 45.22021 | 14.56905 | 267 ft | 0 kts | 284° |
| 2026-04-20 19:22 | 45.22021 | 14.56904 | 267 ft | 0 kts | 284° |
| 2026-04-20 19:23 | 45.22027 | 14.56872 | 267 ft | 8 kts | 284° |
| 2026-04-20 19:23 | 45.22042 | 14.56789 | 267 ft | 9 kts | 284° |
| 2026-04-20 19:23 | 45.22061 | 14.56698 | 267 ft | 12 kts | 297° |
| 2026-04-20 19:23 | 45.22135 | 14.56595 | 269 ft | 16 kts | 323° |
| 2026-04-20 19:24 | 45.22237 | 14.56490 | 270 ft | 20 kts | 324° |
| 2026-04-20 19:24 | 45.22347 | 14.56377 | 271 ft | 19 kts | 324° |
| 2026-04-20 19:24 | 45.22456 | 14.56263 | 270 ft | 20 kts | 323° |
| 2026-04-20 19:24 | 45.22535 | 14.56202 | 271 ft | 9 kts | 1° |
| 2026-04-20 19:25 | 45.22573 | 14.56164 | 271 ft | 8 kts | 255° |
| 2026-04-20 19:25 | 45.22534 | 14.56178 | 273 ft | 7 kts | 143° |
| 2026-04-20 19:25 | 45.22420 | 14.56297 | 270 ft | 51 kts | 143° |
| 2026-04-20 19:25 | 45.21930 | 14.56807 | 266 ft | 121 kts | 143° |
| 2026-04-20 19:26 | 45.21108 | 14.57632 | 435 ft | 154 kts | 143° |
| 2026-04-20 19:26 | 45.20237 | 14.58459 | 1081 ft | 150 kts | 142° |
| 2026-04-20 19:26 | 45.19388 | 14.59351 | 1674 ft | 153 kts | 141° |
| 2026-04-20 19:26 | 45.18534 | 14.60261 | 2278 ft | 155 kts | 142° |
| 2026-04-20 19:27 | 45.17616 | 14.61250 | 2638 ft | 176 kts | 142° |
| 2026-04-20 19:27 | 45.16592 | 14.62359 | 3031 ft | 195 kts | 143° |
| 2026-04-20 19:27 | 45.15430 | 14.63588 | 3302 ft | 224 kts | 144° |
| 2026-04-20 19:27 | 45.14091 | 14.64966 | 3705 ft | 250 kts | 144° |
| 2026-04-20 19:28 | 45.12648 | 14.66446 | 4263 ft | 270 kts | 144° |
| 2026-04-20 19:28 | 45.11120 | 14.68012 | 5279 ft | 267 kts | 144° |
| 2026-04-20 19:28 | 45.09594 | 14.69577 | 6149 ft | 276 kts | 145° |
| 2026-04-20 19:28 | 45.08021 | 14.71192 | 6945 ft | 283 kts | 145° |
| 2026-04-20 19:29 | 45.06408 | 14.72846 | 7770 ft | 289 kts | 146° |
| 2026-04-20 19:29 | 45.04766 | 14.74528 | 8628 ft | 293 kts | 146° |
| 2026-04-20 19:29 | 45.03118 | 14.76259 | 9503 ft | 299 kts | 141° |
| 2026-04-20 19:29 | 45.01933 | 14.78751 | 10085 ft | 315 kts | 108° |
| 2026-04-20 19:30 | 45.01775 | 14.81827 | 10830 ft | 317 kts | 76° |
| 2026-04-20 19:30 | 45.02681 | 14.84605 | 11612 ft | 312 kts | 46° |
| 2026-04-20 19:30 | 45.04378 | 14.86417 | 12328 ft | 306 kts | 17° |
| 2026-04-20 19:30 | 45.06430 | 14.86822 | 13081 ft | 298 kts | 349° |
| 2026-04-20 19:31 | 45.08404 | 14.85928 | 13363 ft | 312 kts | 332° |
| 2026-04-20 19:31 | 45.10488 | 14.84761 | 13665 ft | 334 kts | 341° |
| 2026-04-20 19:31 | 45.12790 | 14.83894 | 13977 ft | 349 kts | 339° |
| 2026-04-20 19:31 | 45.15138 | 14.82788 | 14302 ft | 362 kts | 337° |
| 2026-04-20 19:32 | 45.17540 | 14.81859 | 15269 ft | 356 kts | 343° |
| 2026-04-20 19:32 | 45.19978 | 14.81185 | 15989 ft | 358 kts | 345° |
| 2026-04-20 19:32 | 45.22440 | 14.80595 | 16692 ft | 360 kts | 346° |
| 2026-04-20 19:32 | 45.24927 | 14.80036 | 17372 ft | 363 kts | 347° |
| 2026-04-20 19:33 | 45.27440 | 14.79506 | 18057 ft | 367 kts | 347° |
| 2026-04-20 19:33 | 45.29978 | 14.78976 | 18664 ft | 370 kts | 346° |
| 2026-04-20 19:33 | 45.32534 | 14.78433 | 19241 ft | 373 kts | 346° |
| 2026-04-20 19:33 | 45.35109 | 14.77870 | 19826 ft | 375 kts | 346° |
| 2026-04-20 19:34 | 45.37703 | 14.77289 | 20436 ft | 378 kts | 345° |
| 2026-04-20 19:34 | 45.40275 | 14.76700 | 21012 ft | 381 kts | 345° |
| 2026-04-20 19:34 | 45.42902 | 14.76093 | 21571 ft | 384 kts | 345° |
| 2026-04-20 19:34 | 45.45546 | 14.75481 | 22127 ft | 387 kts | 344° |
| 2026-04-20 19:35 | 45.48211 | 14.74864 | 22660 ft | 389 kts | 344° |
| 2026-04-20 19:35 | 45.50894 | 14.74241 | 23177 ft | 392 kts | 344° |
| 2026-04-20 19:35 | 45.53598 | 14.73660 | 23683 ft | 396 kts | 346° |
| 2026-04-20 19:35 | 45.56357 | 14.73228 | 24134 ft | 400 kts | 347° |
| 2026-04-20 19:36 | 45.59140 | 14.72901 | 24578 ft | 403 kts | 348° |
| 2026-04-20 19:36 | 45.61944 | 14.72619 | 25057 ft | 405 kts | 348° |
| 2026-04-20 19:36 | 45.64751 | 14.72347 | 25540 ft | 404 kts | 348° |
| 2026-04-20 19:36 | 45.67559 | 14.72059 | 26014 ft | 405 kts | 348° |
| 2026-04-20 19:37 | 45.70375 | 14.71743 | 26464 ft | 406 kts | 348° |
| 2026-04-20 19:37 | 45.73190 | 14.71410 | 26883 ft | 408 kts | 347° |
| 2026-04-20 19:37 | 45.76026 | 14.71065 | 27286 ft | 410 kts | 347° |
| 2026-04-20 19:37 | 45.78878 | 14.70712 | 27684 ft | 412 kts | 347° |
| 2026-04-20 19:38 | 45.81700 | 14.70358 | 28078 ft | 413 kts | 347° |
| 2026-04-20 19:38 | 45.84610 | 14.69995 | 28409 ft | 416 kts | 347° |
| 2026-04-20 19:38 | 45.87466 | 14.69643 | 28758 ft | 418 kts | 347° |
| 2026-04-20 19:38 | 45.90373 | 14.69289 | 29128 ft | 420 kts | 347° |
| 2026-04-20 19:39 | 45.93294 | 14.68933 | 29479 ft | 422 kts | 346° |
| 2026-04-20 19:39 | 45.96235 | 14.68572 | 29846 ft | 424 kts | 346° |
| 2026-04-20 19:39 | 45.99182 | 14.68207 | 30178 ft | 426 kts | 346° |
| 2026-04-20 19:39 | 46.02142 | 14.67838 | 30503 ft | 427 kts | 346° |
| 2026-04-20 19:40 | 46.05096 | 14.67472 | 30963 ft | 425 kts | 347° |
| 2026-04-20 19:40 | 46.07090 | 14.67226 | 31259 ft | 424 kts | 347° |
| 2026-04-20 19:40 | 46.09987 | 14.66870 | 31658 ft | 423 kts | 347° |
| 2026-04-20 19:40 | 46.12920 | 14.66510 | 32029 ft | 423 kts | 347° |
| 2026-04-20 19:41 | 46.15854 | 14.66151 | 32417 ft | 422 kts | 347° |
| 2026-04-20 19:41 | 46.18783 | 14.65792 | 32785 ft | 422 kts | 347° |
| 2026-04-20 19:41 | 46.21711 | 14.65430 | 33134 ft | 422 kts | 347° |
| 2026-04-20 19:41 | 46.24637 | 14.65067 | 33538 ft | 422 kts | 348° |
| 2026-04-20 19:42 | 46.27557 | 14.64701 | 33931 ft | 421 kts | 348° |
| 2026-04-20 19:42 | 46.30432 | 14.64112 | 34281 ft | 412 kts | 339° |
| 2026-04-20 19:42 | 46.33160 | 14.62883 | 34572 ft | 410 kts | 336° |
| 2026-04-20 19:42 | 46.35878 | 14.61604 | 34845 ft | 411 kts | 336° |
| 2026-04-20 19:43 | 46.39478 | 14.59883 | 35166 ft | 412 kts | 336° |
| 2026-04-20 19:43 | 46.42202 | 14.58572 | 35431 ft | 413 kts | 336° |
| 2026-04-20 19:43 | 46.44008 | 14.57701 | 35609 ft | 413 kts | 336° |
| 2026-04-20 19:43 | 46.46740 | 14.56384 | 35914 ft | 413 kts | 336° |
| 2026-04-20 19:44 | 46.49469 | 14.55074 | 36172 ft | 413 kts | 336° |
| 2026-04-20 19:44 | 46.52204 | 14.53765 | 36385 ft | 414 kts | 336° |
| 2026-04-20 19:44 | 46.54939 | 14.52454 | 36599 ft | 414 kts | 337° |
| 2026-04-20 19:44 | 46.57680 | 14.51135 | 36814 ft | 415 kts | 337° |
| 2026-04-20 19:45 | 46.60428 | 14.49809 | 37031 ft | 416 kts | 337° |
| 2026-04-20 19:45 | 46.63173 | 14.48483 | 37239 ft | 416 kts | 337° |
| 2026-04-20 19:45 | 46.65926 | 14.47158 | 37446 ft | 417 kts | 337° |
| 2026-04-20 19:45 | 46.68677 | 14.45834 | 37703 ft | 416 kts | 337° |
| 2026-04-20 19:46 | 46.71428 | 14.44506 | 37956 ft | 416 kts | 337° |
| 2026-04-20 19:46 | 46.76921 | 14.41845 | 38051 ft | 416 kts | 337° |
| 2026-04-20 19:47 | 46.82371 | 14.39198 | 38034 ft | 415 kts | 337° |
| 2026-04-20 19:47 | 46.87855 | 14.36531 | 38045 ft | 415 kts | 337° |
| 2026-04-20 19:48 | 46.93342 | 14.33849 | 38043 ft | 416 kts | 336° |
| 2026-04-20 19:48 | 46.98841 | 14.31159 | 38051 ft | 416 kts | 336° |
| 2026-04-20 19:49 | 47.04342 | 14.28474 | 38052 ft | 417 kts | 336° |
| 2026-04-20 19:49 | 47.09846 | 14.25780 | 38068 ft | 417 kts | 336° |
| 2026-04-20 19:50 | 47.15352 | 14.23071 | 38084 ft | 417 kts | 336° |
| 2026-04-20 19:50 | 47.20823 | 14.20373 | 38081 ft | 418 kts | 336° |
| 2026-04-20 19:51 | 47.26339 | 14.17642 | 38055 ft | 419 kts | 336° |
| 2026-04-20 19:51 | 47.31867 | 14.14917 | 38054 ft | 420 kts | 337° |
| 2026-04-20 19:52 | 47.37407 | 14.12169 | 38090 ft | 420 kts | 336° |
| 2026-04-20 19:52 | 47.42955 | 14.09406 | 38086 ft | 421 kts | 336° |
| 2026-04-20 19:53 | 47.48514 | 14.06633 | 38091 ft | 421 kts | 337° |
| 2026-04-20 19:53 | 47.54073 | 14.03865 | 38089 ft | 421 kts | 336° |
| 2026-04-20 19:54 | 47.59634 | 14.01089 | 38115 ft | 422 kts | 337° |
| 2026-04-20 19:54 | 47.65162 | 13.98314 | 38103 ft | 423 kts | 337° |
| 2026-04-20 19:55 | 47.70484 | 13.94836 | 38082 ft | 414 kts | 319° |
| 2026-04-20 19:55 | 47.74417 | 13.88698 | 38075 ft | 411 kts | 309° |
| 2026-04-20 19:56 | 47.78140 | 13.82262 | 38065 ft | 411 kts | 309° |
| 2026-04-20 19:56 | 47.81859 | 13.75784 | 38071 ft | 412 kts | 309° |
| 2026-04-20 19:57 | 47.85585 | 13.69304 | 38070 ft | 413 kts | 309° |
| 2026-04-20 19:57 | 47.89324 | 13.62804 | 38065 ft | 413 kts | 309° |
| 2026-04-20 19:58 | 47.93042 | 13.56326 | 38055 ft | 414 kts | 309° |
| 2026-04-20 19:58 | 47.96787 | 13.49782 | 38063 ft | 415 kts | 309° |
| 2026-04-20 19:59 | 48.00523 | 13.43219 | 38055 ft | 415 kts | 309° |
| 2026-04-20 19:59 | 48.04266 | 13.36638 | 38071 ft | 415 kts | 309° |
| 2026-04-20 20:00 | 48.08008 | 13.30059 | 38064 ft | 416 kts | 309° |
| 2026-04-20 20:00 | 48.11752 | 13.23461 | 38072 ft | 416 kts | 309° |
| 2026-04-20 20:01 | 48.15489 | 13.16846 | 38078 ft | 416 kts | 309° |
| 2026-04-20 20:01 | 48.19223 | 13.10221 | 38078 ft | 416 kts | 309° |
| 2026-04-20 20:02 | 48.22925 | 13.03631 | 38079 ft | 416 kts | 309° |
| 2026-04-20 20:02 | 48.26651 | 12.96983 | 37930 ft | 416 kts | 309° |
| 2026-04-20 20:02 | 48.28523 | 12.93641 | 37225 ft | 419 kts | 308° |
| 2026-04-20 20:03 | 48.30396 | 12.90293 | 36560 ft | 418 kts | 308° |
| 2026-04-20 20:03 | 48.32259 | 12.86960 | 35914 ft | 416 kts | 308° |
| 2026-04-20 20:03 | 48.34117 | 12.83635 | 35286 ft | 414 kts | 308° |
| 2026-04-20 20:03 | 48.35962 | 12.80330 | 34663 ft | 411 kts | 307° |
| 2026-04-20 20:04 | 48.37795 | 12.77037 | 34087 ft | 408 kts | 307° |
| 2026-04-20 20:04 | 48.39575 | 12.73837 | 33386 ft | 400 kts | 307° |
| 2026-04-20 20:04 | 48.41362 | 12.70617 | 32695 ft | 402 kts | 307° |
| 2026-04-20 20:04 | 48.43137 | 12.67415 | 32024 ft | 395 kts | 307° |
| 2026-04-20 20:05 | 48.44887 | 12.64258 | 31369 ft | 391 kts | 307° |
| 2026-04-20 20:05 | 48.46625 | 12.61119 | 30728 ft | 389 kts | 307° |
| 2026-04-20 20:05 | 48.48351 | 12.57996 | 30100 ft | 387 kts | 306° |
| 2026-04-20 20:05 | 48.50063 | 12.54884 | 29346 ft | 385 kts | 306° |
| 2026-04-20 20:06 | 48.51766 | 12.51782 | 28616 ft | 382 kts | 307° |
| 2026-04-20 20:06 | 48.53459 | 12.48702 | 27903 ft | 381 kts | 307° |
| 2026-04-20 20:06 | 48.55149 | 12.45631 | 27204 ft | 379 kts | 307° |
| 2026-04-20 20:06 | 48.56829 | 12.42569 | 26527 ft | 378 kts | 307° |
| 2026-04-20 20:07 | 48.58501 | 12.39517 | 25907 ft | 375 kts | 307° |
| 2026-04-20 20:07 | 48.60160 | 12.36489 | 25239 ft | 373 kts | 308° |
| 2026-04-20 20:07 | 48.61810 | 12.33477 | 24550 ft | 372 kts | 308° |
| 2026-04-20 20:07 | 48.63457 | 12.30462 | 23865 ft | 371 kts | 308° |
| 2026-04-20 20:08 | 48.65100 | 12.27453 | 23140 ft | 371 kts | 309° |
| 2026-04-20 20:08 | 48.66751 | 12.24426 | 22285 ft | 374 kts | 309° |
| 2026-04-20 20:08 | 48.68415 | 12.21372 | 21544 ft | 377 kts | 309° |
| 2026-04-20 20:08 | 48.70076 | 12.18319 | 20958 ft | 375 kts | 309° |
| 2026-04-20 20:09 | 48.71731 | 12.15273 | 20430 ft | 373 kts | 309° |
| 2026-04-20 20:09 | 48.73371 | 12.12249 | 19903 ft | 371 kts | 309° |
| 2026-04-20 20:09 | 48.74989 | 12.09264 | 19364 ft | 370 kts | 309° |
| 2026-04-20 20:09 | 48.76624 | 12.06247 | 18820 ft | 369 kts | 309° |
| 2026-04-20 20:10 | 48.78246 | 12.03246 | 18279 ft | 368 kts | 309° |
| 2026-04-20 20:10 | 48.79862 | 12.00251 | 17673 ft | 366 kts | 309° |
| 2026-04-20 20:10 | 48.81468 | 11.97275 | 17241 ft | 361 kts | 309° |
| 2026-04-20 20:10 | 48.83040 | 11.94360 | 16837 ft | 354 kts | 309° |
| 2026-04-20 20:11 | 48.84595 | 11.91477 | 16347 ft | 351 kts | 309° |
| 2026-04-20 20:11 | 48.86134 | 11.88626 | 15834 ft | 347 kts | 309° |
| 2026-04-20 20:11 | 48.87664 | 11.85791 | 15317 ft | 345 kts | 309° |
| 2026-04-20 20:11 | 48.89176 | 11.82986 | 14829 ft | 342 kts | 309° |
| 2026-04-20 20:12 | 48.90675 | 11.80197 | 14335 ft | 339 kts | 309° |
| 2026-04-20 20:12 | 48.92158 | 11.77431 | 13851 ft | 336 kts | 309° |
| 2026-04-20 20:12 | 48.93609 | 11.74713 | 13265 ft | 335 kts | 309° |
| 2026-04-20 20:13 | 48.96521 | 11.69249 | 12336 ft | 325 kts | 308° |
| 2026-04-20 20:13 | 48.97909 | 11.66647 | 12197 ft | 307 kts | 308° |
| 2026-04-20 20:13 | 48.99218 | 11.64193 | 12065 ft | 290 kts | 308° |
| 2026-04-20 20:13 | 49.00457 | 11.61864 | 11883 ft | 277 kts | 308° |
| 2026-04-20 20:14 | 49.01660 | 11.59614 | 11491 ft | 272 kts | 310° |
| 2026-04-20 20:14 | 49.03154 | 11.57892 | 11034 ft | 272 kts | 335° |
| 2026-04-20 20:14 | 49.05026 | 11.57421 | 10569 ft | 277 kts | 359° |
| 2026-04-20 20:14 | 49.06950 | 11.57756 | 10079 ft | 279 kts | 4° |
| 2026-04-20 20:15 | 49.08867 | 11.58195 | 9565 ft | 278 kts | 5° |
| 2026-04-20 20:15 | 49.10771 | 11.58634 | 9071 ft | 275 kts | 5° |
| 2026-04-20 20:15 | 49.12659 | 11.59047 | 8578 ft | 272 kts | 2° |
| 2026-04-20 20:15 | 49.14529 | 11.59087 | 8069 ft | 268 kts | 355° |
| 2026-04-20 20:16 | 49.16384 | 11.58991 | 7579 ft | 265 kts | 355° |
| 2026-04-20 20:16 | 49.18214 | 11.58868 | 7138 ft | 261 kts | 354° |
| 2026-04-20 20:16 | 49.20014 | 11.58740 | 6658 ft | 258 kts | 354° |
| 2026-04-20 20:16 | 49.21782 | 11.58460 | 6128 ft | 253 kts | 342° |
| 2026-04-20 20:17 | 49.23393 | 11.57502 | 5617 ft | 250 kts | 335° |
| 2026-04-20 20:17 | 49.24930 | 11.56456 | 5473 ft | 234 kts | 334° |
| 2026-04-20 20:17 | 49.26370 | 11.55467 | 5279 ft | 221 kts | 334° |
| 2026-04-20 20:17 | 49.27762 | 11.54507 | 5006 ft | 218 kts | 334° |
| 2026-04-20 20:18 | 49.29135 | 11.53554 | 4693 ft | 216 kts | 335° |
| 2026-04-20 20:18 | 49.30500 | 11.52600 | 4430 ft | 215 kts | 335° |
| 2026-04-20 20:18 | 49.31853 | 11.51633 | 4165 ft | 214 kts | 335° |
| 2026-04-20 20:18 | 49.33193 | 11.50656 | 4009 ft | 213 kts | 335° |
| 2026-04-20 20:19 | 49.34528 | 11.49671 | 3986 ft | 213 kts | 334° |
| 2026-04-20 20:19 | 49.35848 | 11.48694 | 3982 ft | 213 kts | 334° |
| 2026-04-20 20:19 | 49.37185 | 11.47705 | 3981 ft | 213 kts | 334° |
| 2026-04-20 20:19 | 49.38522 | 11.46716 | 3991 ft | 214 kts | 334° |
| 2026-04-20 20:20 | 49.39866 | 11.45734 | 3991 ft | 214 kts | 334° |
| 2026-04-20 20:20 | 49.41205 | 11.44754 | 3989 ft | 213 kts | 334° |
| 2026-04-20 20:20 | 49.42544 | 11.43777 | 3989 ft | 213 kts | 334° |
| 2026-04-20 20:20 | 49.43874 | 11.42807 | 3986 ft | 207 kts | 334° |
| 2026-04-20 20:21 | 49.45129 | 11.41883 | 3985 ft | 193 kts | 331° |
| 2026-04-20 20:21 | 49.46146 | 11.40608 | 3982 ft | 187 kts | 313° |
| 2026-04-20 20:21 | 49.46748 | 11.38862 | 4034 ft | 188 kts | 288° |
| 2026-04-20 20:21 | 49.46972 | 11.36879 | 3996 ft | 186 kts | 282° |
| 2026-04-20 20:22 | 49.47094 | 11.35615 | 3976 ft | 176 kts | 283° |
| 2026-04-20 20:22 | 49.47334 | 11.33201 | 3991 ft | 170 kts | 283° |
| 2026-04-20 20:22 | 49.47514 | 11.31418 | 3993 ft | 168 kts | 283° |
| 2026-04-20 20:22 | 49.47692 | 11.29650 | 3978 ft | 168 kts | 283° |
| 2026-04-20 20:23 | 49.47873 | 11.27856 | 3580 ft | 170 kts | 283° |
| 2026-04-20 20:23 | 49.48042 | 11.26070 | 3246 ft | 169 kts | 283° |
| 2026-04-20 20:23 | 49.48223 | 11.24298 | 2978 ft | 167 kts | 285° |
| 2026-04-20 20:23 | 49.48392 | 11.22594 | 2791 ft | 152 kts | 285° |
| 2026-04-20 20:24 | 49.48537 | 11.21074 | 2578 ft | 137 kts | 284° |
| 2026-04-20 20:24 | 49.48652 | 11.19649 | 2397 ft | 132 kts | 283° |
| 2026-04-20 20:24 | 49.48788 | 11.18271 | 2320 ft | 130 kts | 286° |
| 2026-04-20 20:24 | 49.48936 | 11.16903 | 2070 ft | 129 kts | 284° |
| 2026-04-20 20:25 | 49.49084 | 11.15561 | 1743 ft | 128 kts | 282° |
| 2026-04-20 20:25 | 49.49230 | 11.14178 | 1715 ft | 132 kts | 282° |
| 2026-04-20 20:25 | 49.49371 | 11.12807 | 1513 ft | 132 kts | 282° |
| 2026-04-20 20:25 | 49.49514 | 11.11399 | 1327 ft | 136 kts | 282° |
| 2026-04-20 20:26 | 49.49653 | 11.09914 | 1131 ft | 137 kts | 283° |
| 2026-04-20 20:26 | 49.49793 | 11.08619 | 1039 ft | 107 kts | 278° |
| 2026-04-20 20:26 | 49.49881 | 11.07755 | 1025 ft | 57 kts | 279° |
| 2026-04-20 20:26 | 49.49926 | 11.07263 | 1024 ft | 36 kts | 278° |
| 2026-04-20 20:27 | 49.49913 | 11.07020 | 1023 ft | 18 kts | 210° |
| 2026-04-20 20:27 | 49.49809 | 11.07055 | 1021 ft | 8 kts | 157° |
| 2026-04-20 20:27 | 49.49781 | 11.07074 | 1021 ft | 2 kts | 157° |
| 2026-04-20 20:27 | 49.49770 | 11.07082 | 1021 ft | 2 kts | 152° |
| 2026-04-20 20:28 | 49.49763 | 11.07090 | 1021 ft | 2 kts | 142° |
| 2026-04-20 20:28 | 49.49744 | 11.07144 | 1022 ft | 7 kts | 105° |
| 2026-04-20 20:28 | 49.49720 | 11.07221 | 1022 ft | 9 kts | 140° |
| 2026-04-20 20:28 | 49.49666 | 11.07228 | 1020 ft | 7 kts | 187° |
| 2026-04-20 20:29 | 49.49637 | 11.07261 | 1024 ft | 6 kts | 112° |
| 2026-04-20 20:29 | 49.49627 | 11.07341 | 1024 ft | 10 kts | 99° |
| 2026-04-20 20:29 | 49.49618 | 11.07448 | 1025 ft | 10 kts | 98° |
| 2026-04-20 20:29 | 49.49606 | 11.07563 | 1025 ft | 11 kts | 99° |
| 2026-04-20 20:30 | 49.49596 | 11.07657 | 1026 ft | 7 kts | 102° |
| 2026-04-20 20:30 | 49.49560 | 11.07667 | 1026 ft | 6 kts | 188° |
| 2026-04-20 20:30 | 49.49526 | 11.07660 | 1026 ft | 3 kts | 188° |
| 2026-04-20 20:30 | 49.49522 | 11.07659 | 1026 ft | 0 kts | 188° |